sensor_id;sensor_type;location;lat;lon;timestamp;pressure;altitude;pressure_sealevel;temperature;humidity
63190;BME280;49286;44.460;26.114;2023-02-02T00:01:45;100407.78;;;1.88;100.00
63190;BME280;49286;44.460;26.114;2023-02-02T00:04:17;100388.81;;;1.88;100.00
63190;BME280;49286;44.460;26.114;2023-02-02T00:06:43;100354.31;;;1.63;100.00
63190;BME280;49286;44.460;26.114;2023-02-02T00:09:11;100407.09;;;1.93;100.00
63190;BME280;49286;44.460;26.114;2023-02-02T00:11:37;100258.78;;;0.93;100.00
63190;BME280;49286;44.460;26.114;2023-02-02T00:14:03;100277.34;;;1.07;100.00
63190;BME280;49286;44.460;26.114;2023-02-02T00:18:59;100416.00;;;1.77;100.00
63190;BME280;49286;44.460;26.114;2023-02-02T00:21:25;100299.16;;;0.91;100.00
63190;BME280;49286;44.460;26.114;2023-02-02T00:23:51;100409.09;;;1.76;100.00
63190;BME280;49286;44.460;26.114;2023-02-02T00:26:17;100259.50;;;1.13;100.00
63190;BME280;49286;44.460;26.114;2023-02-02T00:28:43;100308.06;;;1.47;100.00
63190;BME280;49286;44.460;26.114;2023-02-02T00:31:09;100383.25;;;1.77;100.00
63190;BME280;49286;44.460;26.114;2023-02-02T00:33:34;100306.38;;;1.47;100.00
63190;BME280;49286;44.460;26.114;2023-02-02T00:36:00;100225.69;;;1.07;100.00
63190;BME280;49286;44.460;26.114;2023-02-02T00:38:25;100373.06;;;1.82;100.00
63190;BME280;49286;44.460;26.114;2023-02-02T00:40:51;100356.75;;;1.59;100.00
63190;BME280;49286;44.460;26.114;2023-02-02T00:43:16;100384.25;;;1.81;100.00
63190;BME280;49286;44.460;26.114;2023-02-02T00:45:42;100371.63;;;1.64;100.00
63190;BME280;49286;44.460;26.114;2023-02-02T00:48:07;100323.84;;;1.29;100.00
63190;BME280;49286;44.460;26.114;2023-02-02T00:50:35;100226.03;;;0.92;100.00
63190;BME280;49286;44.460;26.114;2023-02-02T00:53:01;100352.03;;;1.71;100.00
63190;BME280;49286;44.460;26.114;2023-02-02T00:55:26;100358.53;;;1.60;100.00
63190;BME280;49286;44.460;26.114;2023-02-02T00:57:52;100359.94;;;1.52;100.00
63190;BME280;49286;44.460;26.114;2023-02-02T01:00:22;100292.91;;;1.32;100.00
63190;BME280;49286;44.460;26.114;2023-02-02T01:02:52;100358.88;;;1.71;100.00
63190;BME280;49286;44.460;26.114;2023-02-02T01:05:19;100321.75;;;1.43;100.00
63190;BME280;49286;44.460;26.114;2023-02-02T01:07:45;100312.81;;;1.11;100.00
63190;BME280;49286;44.460;26.114;2023-02-02T01:10:16;100371.44;;;1.60;100.00
63190;BME280;49286;44.460;26.114;2023-02-02T01:12:42;100342.19;;;1.37;100.00
63190;BME280;49286;44.460;26.114;2023-02-02T01:15:09;100260.84;;;0.79;100.00
63190;BME280;49286;44.460;26.114;2023-02-02T01:17:35;100202.47;;;0.36;100.00
63190;BME280;49286;44.460;26.114;2023-02-02T01:20:01;100205.50;;;0.48;100.00
63190;BME280;49286;44.460;26.114;2023-02-02T01:22:26;100195.75;;;0.63;100.00
63190;BME280;49286;44.460;26.114;2023-02-02T01:24:52;100189.22;;;0.49;100.00
63190;BME280;49286;44.460;26.114;2023-02-02T01:27:17;100330.56;;;1.25;100.00
63190;BME280;49286;44.460;26.114;2023-02-02T01:29:43;100337.78;;;1.34;100.00
63190;BME280;49286;44.460;26.114;2023-02-02T01:32:08;100340.16;;;1.28;100.00
63190;BME280;49286;44.460;26.114;2023-02-02T01:34:34;100309.75;;;1.21;100.00
63190;BME280;49286;44.460;26.114;2023-02-02T01:37:00;100295.94;;;0.96;100.00
63190;BME280;49286;44.460;26.114;2023-02-02T01:39:26;100164.63;;;0.12;100.00
63190;BME280;49286;44.460;26.114;2023-02-02T01:41:51;100346.03;;;1.24;100.00
63190;BME280;49286;44.460;26.114;2023-02-02T01:47:18;100309.03;;;1.25;100.00
63190;BME280;49286;44.460;26.114;2023-02-02T01:49:45;100221.69;;;0.67;100.00
63190;BME280;49286;44.460;26.114;2023-02-02T01:52:13;100317.06;;;1.09;100.00
63190;BME280;49286;44.460;26.114;2023-02-02T01:54:42;100315.84;;;1.23;100.00
63190;BME280;49286;44.460;26.114;2023-02-02T01:59:38;100315.66;;;0.94;100.00
63190;BME280;49286;44.460;26.114;2023-02-02T02:02:05;100321.94;;;1.25;100.00
63190;BME280;49286;44.460;26.114;2023-02-02T02:04:32;100326.63;;;1.35;100.00
63190;BME280;49286;44.460;26.114;2023-02-02T02:06:59;100189.31;;;0.52;100.00
63190;BME280;49286;44.460;26.114;2023-02-02T02:09:25;100277.72;;;0.93;100.00
63190;BME280;49286;44.460;26.114;2023-02-02T02:11:52;100329.44;;;1.17;100.00
63190;BME280;49286;44.460;26.114;2023-02-02T02:14:18;100293.63;;;1.04;100.00
63190;BME280;49286;44.460;26.114;2023-02-02T02:32:09;100318.78;;;1.58;100.00
63190;BME280;49286;44.460;26.114;2023-02-02T02:34:52;100321.84;;;1.46;100.00
63190;BME280;49286;44.460;26.114;2023-02-02T02:38:15;100316.28;;;1.59;100.00
63190;BME280;49286;44.460;26.114;2023-02-02T02:40:25;100322.31;;;1.60;100.00
63190;BME280;49286;44.460;26.114;2023-02-02T02:42:58;100326.88;;;1.67;100.00
63190;BME280;49286;44.460;26.114;2023-02-02T02:45:26;100204.47;;;0.91;100.00
63190;BME280;49286;44.460;26.114;2023-02-02T02:47:53;100189.41;;;0.79;100.00
63190;BME280;49286;44.460;26.114;2023-02-02T02:50:20;100226.13;;;0.95;100.00
63190;BME280;49286;44.460;26.114;2023-02-02T02:52:46;100315.63;;;1.41;100.00
63190;BME280;49286;44.460;26.114;2023-02-02T02:55:14;100249.88;;;1.09;100.00
63190;BME280;49286;44.460;26.114;2023-02-02T03:08:31;100240.31;;;0.82;100.00
63190;BME280;49286;44.460;26.114;2023-02-02T03:11:00;100193.09;;;0.62;100.00
63190;BME280;49286;44.460;26.114;2023-02-02T03:13:28;100232.78;;;0.64;100.00
63190;BME280;49286;44.460;26.114;2023-02-02T03:15:54;100213.66;;;0.36;100.00
63190;BME280;49286;44.460;26.114;2023-02-02T03:18:22;100231.91;;;0.41;100.00
63190;BME280;49286;44.460;26.114;2023-02-02T03:20:49;100235.47;;;0.67;100.00
63190;BME280;49286;44.460;26.114;2023-02-02T03:23:15;100242.56;;;0.73;100.00
63190;BME280;49286;44.460;26.114;2023-02-02T03:25:40;100355.56;;;1.25;100.00
63190;BME280;49286;44.460;26.114;2023-02-02T03:28:06;100204.34;;;0.40;100.00
63190;BME280;49286;44.460;26.114;2023-02-02T03:30:32;100195.09;;;0.45;100.00
63190;BME280;49286;44.460;26.114;2023-02-02T03:32:58;100220.13;;;0.48;100.00
63190;BME280;49286;44.460;26.114;2023-02-02T03:35:24;100280.22;;;0.68;100.00
63190;BME280;49286;44.460;26.114;2023-02-02T03:37:50;100352.19;;;1.03;100.00
63190;BME280;49286;44.460;26.114;2023-02-02T03:40:16;100236.19;;;0.40;100.00
63190;BME280;49286;44.460;26.114;2023-02-02T03:42:41;100267.31;;;0.68;100.00
63190;BME280;49286;44.460;26.114;2023-02-02T03:45:07;100334.19;;;1.07;100.00
63190;BME280;49286;44.460;26.114;2023-02-02T03:47:33;100187.75;;;-0.12;100.00
63190;BME280;49286;44.460;26.114;2023-02-02T03:49:58;100302.13;;;0.77;100.00
63190;BME280;49286;44.460;26.114;2023-02-02T03:52:24;100296.28;;;0.59;100.00
63190;BME280;49286;44.460;26.114;2023-02-02T03:54:50;100326.84;;;0.71;100.00
63190;BME280;49286;44.460;26.114;2023-02-02T03:57:16;100330.59;;;0.79;100.00
63190;BME280;49286;44.460;26.114;2023-02-02T03:59:41;100170.63;;;-0.32;100.00
63190;BME280;49286;44.460;26.114;2023-02-02T04:02:07;100168.81;;;-0.12;100.00
63190;BME280;49286;44.460;26.114;2023-02-02T04:04:32;100296.84;;;0.74;100.00
63190;BME280;49286;44.460;26.114;2023-02-02T04:06:58;100299.50;;;0.76;100.00
63190;BME280;49286;44.460;26.114;2023-02-02T04:09:24;100276.19;;;0.74;100.00
63190;BME280;49286;44.460;26.114;2023-02-02T04:11:49;100158.59;;;0.12;100.00
63190;BME280;49286;44.460;26.114;2023-02-02T04:14:15;100306.44;;;1.01;100.00
63190;BME280;49286;44.460;26.114;2023-02-02T04:16:40;100281.66;;;0.82;100.00
63190;BME280;49286;44.460;26.114;2023-02-02T04:19:06;100166.16;;;0.07;100.00
63190;BME280;49286;44.460;26.114;2023-02-02T04:21:32;100299.00;;;0.86;100.00
63190;BME280;49286;44.460;26.114;2023-02-02T04:23:58;100161.38;;;0.18;100.00
63190;BME280;49286;44.460;26.114;2023-02-02T04:26:23;100301.22;;;0.99;100.00
63190;BME280;49286;44.460;26.114;2023-02-02T04:28:51;100290.44;;;0.87;100.00
63190;BME280;49286;44.460;26.114;2023-02-02T04:31:16;100292.97;;;0.86;100.00
63190;BME280;49286;44.460;26.114;2023-02-02T04:33:42;100163.44;;;0.04;100.00
63190;BME280;49286;44.460;26.114;2023-02-02T04:36:07;100168.31;;;0.19;100.00
63190;BME280;49286;44.460;26.114;2023-02-02T04:38:33;100171.34;;;0.09;100.00
63190;BME280;49286;44.460;26.114;2023-02-02T04:41:05;100153.41;;;-0.11;100.00
63190;BME280;49286;44.460;26.114;2023-02-02T04:43:33;100298.97;;;0.84;100.00
63190;BME280;49286;44.460;26.114;2023-02-02T04:45:59;100186.19;;;0.14;100.00
63190;BME280;49286;44.460;26.114;2023-02-02T04:48:24;100302.69;;;0.70;100.00
63190;BME280;49286;44.460;26.114;2023-02-02T04:50:50;100174.81;;;-0.13;100.00
63190;BME280;49286;44.460;26.114;2023-02-02T04:53:15;100153.97;;;0.05;100.00
63190;BME280;49286;44.460;26.114;2023-02-02T04:55:41;100288.56;;;0.83;100.00
63190;BME280;49286;44.460;26.114;2023-02-02T04:58:06;100249.72;;;0.35;100.00
63190;BME280;49286;44.460;26.114;2023-02-02T05:00:32;100333.34;;;0.83;100.00
63190;BME280;49286;44.460;26.114;2023-02-02T05:02:57;100193.09;;;0.15;100.00
63190;BME280;49286;44.460;26.114;2023-02-02T05:05:23;100178.03;;;0.04;100.00
63190;BME280;49286;44.460;26.114;2023-02-02T05:07:48;100194.88;;;0.16;100.00
63190;BME280;49286;44.460;26.114;2023-02-02T05:10:13;100189.41;;;0.09;100.00
63190;BME280;49286;44.460;26.114;2023-02-02T05:12:39;100327.78;;;0.73;100.00
63190;BME280;49286;44.460;26.114;2023-02-02T05:15:05;100147.47;;;-0.31;100.00
63190;BME280;49286;44.460;26.114;2023-02-02T05:17:31;100164.97;;;-0.01;100.00
63190;BME280;49286;44.460;26.114;2023-02-02T05:19:56;100305.09;;;0.88;100.00
63190;BME280;49286;44.460;26.114;2023-02-02T05:22:22;100304.16;;;0.86;100.00
63190;BME280;49286;44.460;26.114;2023-02-02T05:24:47;100169.78;;;0.12;100.00
63190;BME280;49286;44.460;26.114;2023-02-02T05:27:13;100294.13;;;0.94;100.00
63190;BME280;49286;44.460;26.114;2023-02-02T05:29:38;100163.44;;;0.27;100.00
63190;BME280;49286;44.460;26.114;2023-02-02T05:32:04;100298.06;;;0.84;100.00
63190;BME280;49286;44.460;26.114;2023-02-02T05:34:30;100298.19;;;0.87;100.00
63190;BME280;49286;44.460;26.114;2023-02-02T05:36:55;100191.22;;;0.34;100.00
63190;BME280;49286;44.460;26.114;2023-02-02T05:39:21;100171.75;;;0.19;100.00
63190;BME280;49286;44.460;26.114;2023-02-02T05:41:46;100162.38;;;0.22;100.00
63190;BME280;49286;44.460;26.114;2023-02-02T05:44:13;100284.88;;;0.76;100.00
63190;BME280;49286;44.460;26.114;2023-02-02T05:46:39;100260.31;;;0.88;100.00
63190;BME280;49286;44.460;26.114;2023-02-02T05:49:05;100284.50;;;1.14;100.00
63190;BME280;49286;44.460;26.114;2023-02-02T05:51:36;100292.50;;;1.20;100.00
63190;BME280;49286;44.460;26.114;2023-02-02T05:54:03;100141.75;;;-0.01;100.00
63190;BME280;49286;44.460;26.114;2023-02-02T05:56:28;100306.34;;;1.22;100.00
63190;BME280;49286;44.460;26.114;2023-02-02T05:58:54;100180.75;;;0.53;100.00
63190;BME280;49286;44.460;26.114;2023-02-02T06:01:20;100267.63;;;1.23;100.00
63190;BME280;49286;44.460;26.114;2023-02-02T06:03:46;100307.41;;;1.53;100.00
63190;BME280;49286;44.460;26.114;2023-02-02T06:06:11;100279.91;;;1.29;100.00
63190;BME280;49286;44.460;26.114;2023-02-02T06:08:37;100308.22;;;1.52;100.00
63190;BME280;49286;44.460;26.114;2023-02-02T06:11:10;100259.22;;;1.29;100.00
63190;BME280;49286;44.460;26.114;2023-02-02T06:13:35;100257.59;;;1.33;100.00
63190;BME280;49286;44.460;26.114;2023-02-02T06:16:01;100282.28;;;1.48;100.00
63190;BME280;49286;44.460;26.114;2023-02-02T06:18:26;100270.38;;;1.28;100.00
63190;BME280;49286;44.460;26.114;2023-02-02T06:20:59;100297.72;;;1.47;100.00
63190;BME280;49286;44.460;26.114;2023-02-02T06:23:25;100168.91;;;0.84;100.00
63190;BME280;49286;44.460;26.114;2023-02-02T06:25:51;100240.19;;;1.27;100.00
63190;BME280;49286;44.460;26.114;2023-02-02T06:28:16;100300.53;;;1.53;100.00
63190;BME280;49286;44.460;26.114;2023-02-02T06:30:42;100319.06;;;1.65;100.00
63190;BME280;49286;44.460;26.114;2023-02-02T06:33:07;100291.53;;;1.67;100.00
63190;BME280;49286;44.460;26.114;2023-02-02T06:35:33;100296.16;;;1.76;100.00
63190;BME280;49286;44.460;26.114;2023-02-02T06:37:59;100284.88;;;1.48;100.00
63190;BME280;49286;44.460;26.114;2023-02-02T06:40:26;100317.72;;;1.77;100.00
63190;BME280;49286;44.460;26.114;2023-02-02T06:43:01;100181.59;;;1.02;100.00
63190;BME280;49286;44.460;26.114;2023-02-02T06:45:28;100304.22;;;1.60;100.00
63190;BME280;49286;44.460;26.114;2023-02-02T06:47:57;100292.31;;;1.65;100.00
63190;BME280;49286;44.460;26.114;2023-02-02T06:50:22;100330.03;;;1.84;100.00
63190;BME280;49286;44.460;26.114;2023-02-02T06:52:49;100313.78;;;1.88;100.00
63190;BME280;49286;44.460;26.114;2023-02-02T06:55:15;100313.66;;;1.85;100.00
63190;BME280;49286;44.460;26.114;2023-02-02T06:57:41;100323.69;;;2.01;100.00
63190;BME280;49286;44.460;26.114;2023-02-02T07:00:07;100180.34;;;1.15;100.00
63190;BME280;49286;44.460;26.114;2023-02-02T07:02:32;100329.41;;;1.91;100.00
63190;BME280;49286;44.460;26.114;2023-02-02T07:04:59;100288.88;;;1.66;100.00
63190;BME280;49286;44.460;26.114;2023-02-02T07:07:25;100291.59;;;1.69;100.00
63190;BME280;49286;44.460;26.114;2023-02-02T07:09:50;100301.25;;;2.00;100.00
63190;BME280;49286;44.460;26.114;2023-02-02T07:12:16;100234.19;;;1.54;100.00
63190;BME280;49286;44.460;26.114;2023-02-02T07:14:44;100320.00;;;1.93;100.00
63190;BME280;49286;44.460;26.114;2023-02-02T07:17:10;100190.66;;;1.40;100.00
63190;BME280;49286;44.460;26.114;2023-02-02T07:19:35;100338.28;;;2.25;100.00
63190;BME280;49286;44.460;26.114;2023-02-02T07:22:00;100267.84;;;1.81;100.00
63190;BME280;49286;44.460;26.114;2023-02-02T07:24:26;100202.59;;;1.37;100.00
63190;BME280;49286;44.460;26.114;2023-02-02T07:26:52;100263.41;;;1.51;100.00
63190;BME280;49286;44.460;26.114;2023-02-02T07:29:17;100356.53;;;2.02;100.00
63190;BME280;49286;44.460;26.114;2023-02-02T07:31:43;100336.22;;;1.89;100.00
63190;BME280;49286;44.460;26.114;2023-02-02T07:34:08;100265.13;;;1.51;100.00
63190;BME280;49286;44.460;26.114;2023-02-02T07:36:34;100254.78;;;1.51;100.00
63190;BME280;49286;44.460;26.114;2023-02-02T07:39:00;100364.78;;;2.18;100.00
63190;BME280;49286;44.460;26.114;2023-02-02T07:41:28;100355.84;;;2.08;100.00
63190;BME280;49286;44.460;26.114;2023-02-02T07:43:54;100386.56;;;2.24;100.00
63190;BME280;49286;44.460;26.114;2023-02-02T07:46:20;100380.53;;;2.24;100.00
63190;BME280;49286;44.460;26.114;2023-02-02T07:48:45;100260.19;;;1.84;100.00
63190;BME280;49286;44.460;26.114;2023-02-02T07:51:15;100252.94;;;1.99;100.00
63190;BME280;49286;44.460;26.114;2023-02-02T07:53:43;100211.91;;;1.84;100.00
63190;BME280;49286;44.460;26.114;2023-02-02T07:56:23;100255.50;;;1.99;100.00
63190;BME280;49286;44.460;26.114;2023-02-02T07:58:51;100357.91;;;2.72;100.00
63190;BME280;49286;44.460;26.114;2023-02-02T08:01:17;100258.00;;;2.23;100.00
63190;BME280;49286;44.460;26.114;2023-02-02T08:03:45;100361.00;;;2.89;100.00
63190;BME280;49286;44.460;26.114;2023-02-02T08:08:38;100238.13;;;1.95;100.00
63190;BME280;49286;44.460;26.114;2023-02-02T08:11:06;100243.97;;;2.17;100.00
63190;BME280;49286;44.460;26.114;2023-02-02T08:13:32;100368.72;;;3.16;100.00
63190;BME280;49286;44.460;26.114;2023-02-02T08:15:57;100357.03;;;3.31;100.00
63190;BME280;49286;44.460;26.114;2023-02-02T08:18:23;100315.34;;;3.25;100.00
63190;BME280;49286;44.460;26.114;2023-02-02T08:20:48;100341.00;;;3.14;100.00
63190;BME280;49286;44.460;26.114;2023-02-02T08:23:16;100310.91;;;3.21;100.00
63190;BME280;49286;44.460;26.114;2023-02-02T08:25:48;100236.88;;;2.99;100.00
63190;BME280;49286;44.460;26.114;2023-02-02T08:28:14;100368.56;;;3.74;100.00
63190;BME280;49286;44.460;26.114;2023-02-02T08:30:40;100362.69;;;3.79;100.00
63190;BME280;49286;44.460;26.114;2023-02-02T08:33:05;100226.50;;;3.30;100.00
63190;BME280;49286;44.460;26.114;2023-02-02T08:35:31;100271.94;;;3.49;100.00
63190;BME280;49286;44.460;26.114;2023-02-02T08:37:56;100384.69;;;3.94;100.00
63190;BME280;49286;44.460;26.114;2023-02-02T08:40:22;100360.16;;;4.16;100.00
63190;BME280;49286;44.460;26.114;2023-02-02T08:42:53;100342.59;;;4.06;100.00
63190;BME280;49286;44.460;26.114;2023-02-02T08:45:19;100372.63;;;4.31;100.00
63190;BME280;49286;44.460;26.114;2023-02-02T08:47:45;100350.63;;;4.15;100.00
63190;BME280;49286;44.460;26.114;2023-02-02T08:50:10;100270.16;;;3.81;100.00
63190;BME280;49286;44.460;26.114;2023-02-02T08:52:36;100287.19;;;4.05;100.00
63190;BME280;49286;44.460;26.114;2023-02-02T08:55:02;100392.56;;;4.67;100.00
63190;BME280;49286;44.460;26.114;2023-02-02T08:57:27;100282.66;;;3.96;100.00
63190;BME280;49286;44.460;26.114;2023-02-02T08:59:54;100410.03;;;4.74;100.00
63190;BME280;49286;44.460;26.114;2023-02-02T09:02:20;100255.72;;;3.91;100.00
63190;BME280;49286;44.460;26.114;2023-02-02T09:04:45;100246.16;;;3.90;100.00
63190;BME280;49286;44.460;26.114;2023-02-02T09:07:12;100279.19;;;3.63;100.00
63190;BME280;49286;44.460;26.114;2023-02-02T09:09:37;100396.97;;;4.34;100.00
63190;BME280;49286;44.460;26.114;2023-02-02T09:12:03;100403.78;;;4.31;100.00
63190;BME280;49286;44.460;26.114;2023-02-02T09:14:28;100306.53;;;3.83;100.00
63190;BME280;49286;44.460;26.114;2023-02-02T09:16:54;100412.19;;;4.20;100.00
63190;BME280;49286;44.460;26.114;2023-02-02T09:19:19;100302.84;;;3.73;100.00
63190;BME280;49286;44.460;26.114;2023-02-02T09:21:45;100286.53;;;3.46;100.00
63190;BME280;49286;44.460;26.114;2023-02-02T09:24:12;100259.56;;;3.39;100.00
63190;BME280;49286;44.460;26.114;2023-02-02T09:26:38;100381.91;;;4.21;100.00
63190;BME280;49286;44.460;26.114;2023-02-02T09:29:06;100394.19;;;4.28;100.00
63190;BME280;49286;44.460;26.114;2023-02-02T09:31:34;100249.66;;;3.56;100.00
63190;BME280;49286;44.460;26.114;2023-02-02T09:34:01;100276.56;;;4.32;100.00
63190;BME280;49286;44.460;26.114;2023-02-02T09:36:27;100369.47;;;6.09;100.00
63190;BME280;49286;44.460;26.114;2023-02-02T09:38:53;100261.09;;;4.37;100.00
63190;BME280;49286;44.460;26.114;2023-02-02T09:44:04;100382.06;;;5.41;100.00
63190;BME280;49286;44.460;26.114;2023-02-02T09:49:10;100329.69;;;4.84;100.00
63190;BME280;49286;44.460;26.114;2023-02-02T09:51:43;100390.00;;;5.48;100.00
63190;BME280;49286;44.460;26.114;2023-02-02T09:54:18;100395.13;;;5.44;100.00
63190;BME280;49286;44.460;26.114;2023-02-02T09:56:48;100392.19;;;4.51;100.00
63190;BME280;49286;44.460;26.114;2023-02-02T09:59:21;100372.59;;;5.05;100.00
63190;BME280;49286;44.460;26.114;2023-02-02T10:01:54;100290.16;;;4.99;100.00
63190;BME280;49286;44.460;26.114;2023-02-02T10:04:26;100363.06;;;5.04;100.00
63190;BME280;49286;44.460;26.114;2023-02-02T10:06:59;100290.69;;;4.84;100.00
63190;BME280;49286;44.460;26.114;2023-02-02T10:15:11;100229.78;;;4.31;100.00
63190;BME280;49286;44.460;26.114;2023-02-02T10:23:32;100356.78;;;5.35;100.00
63190;BME280;49286;44.460;26.114;2023-02-02T10:29:26;100342.31;;;5.49;100.00
63190;BME280;49286;44.460;26.114;2023-02-02T10:32:14;100346.44;;;5.40;100.00
63190;BME280;49286;44.460;26.114;2023-02-02T10:37:48;100338.16;;;5.15;100.00
63190;BME280;49286;44.460;26.114;2023-02-02T10:46:00;100196.28;;;4.43;100.00
63190;BME280;49286;44.460;26.114;2023-02-02T10:48:36;100300.41;;;4.92;100.00
63190;BME280;49286;44.460;26.114;2023-02-02T10:51:09;100330.38;;;5.15;100.00
63190;BME280;49286;44.460;26.114;2023-02-02T10:53:35;100201.78;;;4.58;100.00
63190;BME280;49286;44.460;26.114;2023-02-02T10:56:06;100186.84;;;4.07;100.00
63190;BME280;49286;44.460;26.114;2023-02-02T10:58:53;100304.09;;;5.03;100.00
63190;BME280;49286;44.460;26.114;2023-02-02T11:01:22;100294.72;;;5.11;100.00
63190;BME280;49286;44.460;26.114;2023-02-02T11:03:48;100301.25;;;4.91;100.00
63190;BME280;49286;44.460;26.114;2023-02-02T11:06:34;100293.53;;;4.95;100.00
63190;BME280;49286;44.460;26.114;2023-02-02T11:09:24;100272.91;;;4.63;100.00
63190;BME280;49286;44.460;26.114;2023-02-02T11:11:53;100195.59;;;4.11;100.00
63190;BME280;49286;44.460;26.114;2023-02-02T11:14:35;100158.00;;;3.95;100.00
63190;BME280;49286;44.460;26.114;2023-02-02T11:17:04;100267.72;;;4.62;100.00
63190;BME280;49286;44.460;26.114;2023-02-02T11:19:33;100151.19;;;4.00;100.00
63190;BME280;49286;44.460;26.114;2023-02-02T11:22:03;100245.34;;;4.69;100.00
63190;BME280;49286;44.460;26.114;2023-02-02T11:24:40;100282.88;;;4.83;100.00
63190;BME280;49286;44.460;26.114;2023-02-02T11:27:21;100264.78;;;4.88;100.00
63190;BME280;49286;44.460;26.114;2023-02-02T11:29:52;100141.78;;;4.04;100.00
63190;BME280;49286;44.460;26.114;2023-02-02T11:34:45;100131.59;;;4.13;100.00
63190;BME280;49286;44.460;26.114;2023-02-02T11:37:12;100253.72;;;4.98;100.00
63190;BME280;49286;44.460;26.114;2023-02-02T11:39:40;100243.59;;;4.69;100.00
63190;BME280;49286;44.460;26.114;2023-02-02T11:44:43;100112.69;;;4.20;100.00
63190;BME280;49286;44.460;26.114;2023-02-02T11:47:23;100101.09;;;4.04;100.00
63190;BME280;49286;44.460;26.114;2023-02-02T11:49:50;100231.19;;;4.97;100.00
63190;BME280;49286;44.460;26.114;2023-02-02T11:52:24;100186.16;;;4.55;100.00
63190;BME280;49286;44.460;26.114;2023-02-02T11:54:53;100224.97;;;4.90;100.00
63190;BME280;49286;44.460;26.114;2023-02-02T11:57:22;100224.06;;;4.88;100.00
63190;BME280;49286;44.460;26.114;2023-02-02T11:59:50;100142.03;;;4.57;100.00
63190;BME280;49286;44.460;26.114;2023-02-02T12:02:26;100217.41;;;5.02;100.00
63190;BME280;49286;44.460;26.114;2023-02-02T12:04:56;100124.59;;;4.53;100.00
63190;BME280;49286;44.460;26.114;2023-02-02T12:07:37;100226.16;;;5.06;100.00
63190;BME280;49286;44.460;26.114;2023-02-02T12:10:13;100129.63;;;4.43;100.00
63190;BME280;49286;44.460;26.114;2023-02-02T12:13:07;100220.97;;;5.07;100.00
63190;BME280;49286;44.460;26.114;2023-02-02T12:26:22;100211.81;;;5.28;100.00
63190;BME280;49286;44.460;26.114;2023-02-02T12:40:57;100204.75;;;5.21;100.00
63190;BME280;49286;44.460;26.114;2023-02-02T12:43:41;100202.19;;;5.24;100.00
63190;BME280;49286;44.460;26.114;2023-02-02T12:46:31;100208.69;;;5.46;100.00
63190;BME280;49286;44.460;26.114;2023-02-02T12:52:16;100116.97;;;4.60;100.00
63190;BME280;49286;44.460;26.114;2023-02-02T13:16:31;100085.38;;;4.39;100.00
63190;BME280;49286;44.460;26.114;2023-02-02T13:19:04;100188.69;;;4.96;100.00
63190;BME280;49286;44.460;26.114;2023-02-02T13:21:31;100128.34;;;4.67;100.00
63190;BME280;49286;44.460;26.114;2023-02-02T13:24:01;100214.53;;;5.36;100.00
63190;BME280;49286;44.460;26.114;2023-02-02T13:26:35;100202.41;;;5.35;100.00
63190;BME280;49286;44.460;26.114;2023-02-02T13:31:58;100232.34;;;5.60;100.00
63190;BME280;49286;44.460;26.114;2023-02-02T13:34:48;100180.53;;;5.23;100.00
63190;BME280;49286;44.460;26.114;2023-02-02T13:40:05;100231.28;;;5.48;100.00
63190;BME280;49286;44.460;26.114;2023-02-02T13:50:44;100244.78;;;5.29;100.00
63190;BME280;49286;44.460;26.114;2023-02-02T14:01:59;100141.19;;;4.59;100.00
63190;BME280;49286;44.460;26.114;2023-02-02T14:04:27;100130.00;;;4.62;100.00
63190;BME280;49286;44.460;26.114;2023-02-02T14:07:02;100259.47;;;5.25;100.00
63190;BME280;49286;44.460;26.114;2023-02-02T14:09:32;100247.25;;;5.21;100.00
63190;BME280;49286;44.460;26.114;2023-02-02T14:12:05;100135.63;;;4.41;100.00
63190;BME280;49286;44.460;26.114;2023-02-02T14:14:32;100114.09;;;4.47;100.00
63190;BME280;49286;44.460;26.114;2023-02-02T14:24:39;100258.28;;;5.08;100.00
63190;BME280;49286;44.460;26.114;2023-02-02T14:34:43;100274.09;;;4.76;100.00
63190;BME280;49286;44.460;26.114;2023-02-02T14:45:40;100186.72;;;4.42;100.00
63190;BME280;49286;44.460;26.114;2023-02-02T14:55:34;100257.44;;;4.68;100.00
63190;BME280;49286;44.460;26.114;2023-02-02T14:58:03;100129.34;;;3.89;100.00
63190;BME280;49286;44.460;26.114;2023-02-02T15:00:32;100158.97;;;3.98;100.00
63190;BME280;49286;44.460;26.114;2023-02-02T15:06:05;100222.84;;;4.30;100.00
63190;BME280;49286;44.460;26.114;2023-02-02T15:08:32;100233.94;;;4.22;100.00
63190;BME280;49286;44.460;26.114;2023-02-02T15:11:02;100271.84;;;4.52;100.00
63190;BME280;49286;44.460;26.114;2023-02-02T15:14:02;100252.81;;;4.15;100.00
63190;BME280;49286;44.460;26.114;2023-02-02T15:16:32;100199.72;;;4.02;100.00
63190;BME280;49286;44.460;26.114;2023-02-02T15:19:11;100271.84;;;4.52;100.00
63190;BME280;49286;44.460;26.114;2023-02-02T15:21:39;100126.00;;;3.58;100.00
63190;BME280;49286;44.460;26.114;2023-02-02T15:24:12;100241.66;;;4.19;100.00
63190;BME280;49286;44.460;26.114;2023-02-02T15:26:41;100131.06;;;3.52;100.00
63190;BME280;49286;44.460;26.114;2023-02-02T15:29:16;100187.91;;;3.77;100.00
63190;BME280;49286;44.460;26.114;2023-02-02T15:31:46;100280.03;;;4.31;100.00
63190;BME280;49286;44.460;26.114;2023-02-02T15:34:23;100265.25;;;4.29;100.00
63190;BME280;49286;44.460;26.114;2023-02-02T15:36:53;100166.16;;;3.72;100.00
63190;BME280;49286;44.460;26.114;2023-02-02T15:39:33;100235.56;;;4.19;100.00
63190;BME280;49286;44.460;26.114;2023-02-02T15:42:05;100163.94;;;3.51;100.00